Asopos — A8HS6 — position and weather

sailwx.info

Track history (hours):
 
Tides and Currents Weather Stations Pressure Air Temp Water Temp Dewpoint Dewpoint Depression Visibility Wind Speed Wind Dir Waves Ship Positions

Asopos

Last reported at 2018-Jan-18 17:00 UTC. Time now 2018-Jan-18 17:26 UTC.
Position N 09°26' W 079°54'.

Length 213 m; draft 10.6 m.

Type: Tanker. MMSI: 636012767.

Date/timePositionNaut miles runAvg speedWind from/ knotsBaromVisibWave heightAir tempDewpointWater temp
2018-Jan-18 17:00N 09°26' W 079°54'2 4.2
2018-Jan-18 16:31N 09°28' W 079°53'510.2
2018-Jan-18 15:59N 09°33' W 079°53'511.3
2018-Jan-18 15:30N 09°39' W 079°53'  
2018-Jan-11 13:08N 29°44' W 095°03'0 0.0
2018-Jan-11 12:58N 29°44' W 095°03'1 1.9
2018-Jan-11 12:30N 29°44' W 095°02'3 6.3
2018-Jan-11 12:00N 29°42' W 094°60'5 9.2
2018-Jan-11 11:30N 29°37' W 094°58'510.7
2018-Jan-11 11:00N 29°33' W 094°54'611.7
2018-Jan-11 10:30N 29°28' W 094°51'611.4
2018-Jan-11 10:00N 29°23' W 094°48'69 5.2
2018-Jan-10 20:51N 28°45' W 093°42'10713.4
2018-Jan-10 12:56N 27°54' W 091°56'914.1
2018-Jan-10 12:19N 27°55' W 091°46'1714.0
2018-Jan-10 11:07N 27°56' W 091°27'1913.8
2018-Jan-10 09:43N 27°58' W 091°05'3614.0
2018-Jan-10 07:09N 28°01' W 090°25'413.9
2018-Jan-10 06:52N 28°01' W 090°20'  
Track history (hours):
 
Tides and Currents Weather Stations Pressure Air Temp Water Temp Dewpoint Dewpoint Depression Visibility Wind Speed Wind Dir Waves Ship Positions

Asopos

Last reported at 2018-Jan-18 17:00 UTC. Time now 2018-Jan-18 17:26 UTC.
Position N 09°26' W 079°54'.

Length 213 m; draft 10.6 m.

Type: Tanker. MMSI: 636012767.

Date/timePositionNaut miles runAvg speedWind from/ knotsBaromVisibWave heightAir tempDewpointWater temp
2018-Jan-18 17:00N 09°26' W 079°54'2 4.2
2018-Jan-18 16:31N 09°28' W 079°53'510.2
2018-Jan-18 15:59N 09°33' W 079°53'511.3
2018-Jan-18 15:30N 09°39' W 079°53'  
2018-Jan-11 13:08N 29°44' W 095°03'0 0.0
2018-Jan-11 12:58N 29°44' W 095°03'1 1.9
2018-Jan-11 12:30N 29°44' W 095°02'3 6.3
2018-Jan-11 12:00N 29°42' W 094°60'5 9.2
2018-Jan-11 11:30N 29°37' W 094°58'510.7
2018-Jan-11 11:00N 29°33' W 094°54'611.7
2018-Jan-11 10:30N 29°28' W 094°51'611.4
2018-Jan-11 10:00N 29°23' W 094°48'69 5.2
2018-Jan-10 20:51N 28°45' W 093°42'10713.4
2018-Jan-10 12:56N 27°54' W 091°56'914.1
2018-Jan-10 12:19N 27°55' W 091°46'1714.0
2018-Jan-10 11:07N 27°56' W 091°27'1913.8
2018-Jan-10 09:43N 27°58' W 091°05'3614.0
2018-Jan-10 07:09N 28°01' W 090°25'413.9
2018-Jan-10 06:52N 28°01' W 090°20'  

Dump ship's entire track history